Time;durP1;ratioP1;P1;durP2;ratioP2;P2;SDS_P1;SDS_P2;PMS_P1;PMS_P2;Temp;Humidity;BMP_temperature;BMP_pressure;BME280_temperature;BME280_humidity;BME280_pressure;Samples;Min_cycle;Max_cycle;Signal;HPM_P1;HPM_P2
2023/04/29 00:00:50;;;;;;;3.40;3.20;;;11.50;97.30;;;;;;4991196;28;20175;-84
2023/04/29 00:03:17;;;;;;;7.13;5.33;;;11.60;97.30;;;;;;4985183;28;20190;-82
2023/04/29 00:05:43;;;;;;;12.70;3.90;;;11.60;97.30;;;;;;5002821;28;20178;-82
2023/04/29 00:08:09;;;;;;;5.70;2.80;;;11.60;97.30;;;;;;4994660;28;20417;-81
2023/04/29 00:10:34;;;;;;;8.87;3.80;;;11.70;97.30;;;;;;5004834;28;20220;-82
2023/04/29 00:12:59;;;;;;;9.33;4.80;;;11.70;97.30;;;;;;4994552;28;20193;-84
2023/04/29 00:15:25;;;;;;;3.93;3.33;;;11.70;97.30;;;;;;4996533;28;20789;-83
2023/04/29 00:17:50;;;;;;;7.73;4.20;;;11.70;97.30;;;;;;4991426;28;20211;-82
2023/04/29 00:20:16;;;;;;;5.50;4.40;;;11.80;97.30;;;;;;4980946;28;20178;-85
2023/04/29 00:22:42;;;;;;;3.17;2.43;;;11.80;97.30;;;;;;5002572;28;20221;-82
2023/04/29 00:25:08;;;;;;;4.73;4.30;;;11.80;97.30;;;;;;4978289;28;20186;-82
2023/04/29 00:27:33;;;;;;;5.67;3.80;;;11.80;97.30;;;;;;4987388;28;20216;-81
2023/04/29 00:29:59;;;;;;;4.00;3.80;;;11.80;97.30;;;;;;5006989;28;20189;-82
2023/04/29 00:32:24;;;;;;;5.43;4.77;;;11.80;97.30;;;;;;4995282;28;20202;-82
2023/04/29 00:34:50;;;;;;;6.60;3.07;;;11.80;97.30;;;;;;4998777;28;20205;-82
2023/04/29 00:37:16;;;;;;;3.90;2.90;;;11.80;97.30;;;;;;5000284;28;20328;-82
2023/04/29 00:39:41;;;;;;;3.73;3.53;;;11.80;97.30;;;;;;5006889;28;20173;-84
2023/04/29 00:42:08;;;;;;;3.73;3.27;;;11.80;97.30;;;;;;4994983;28;20296;-84
2023/04/29 00:44:33;;;;;;;3.33;3.13;;;11.80;97.30;;;;;;4993448;28;20177;-84
2023/04/29 00:46:59;;;;;;;4.23;3.60;;;11.80;97.30;;;;;;4997029;28;20715;-82
2023/04/29 00:49:25;;;;;;;6.47;4.40;;;11.80;97.30;;;;;;4993029;28;20260;-83
2023/04/29 00:51:52;;;;;;;5.57;3.90;;;11.80;97.30;;;;;;4993257;28;20316;-82
2023/04/29 00:54:17;;;;;;;5.00;3.80;;;11.70;97.30;;;;;;4985514;28;20412;-83
2023/04/29 00:56:45;;;;;;;5.80;4.30;;;11.70;97.30;;;;;;4986637;28;20475;-84
2023/04/29 00:59:11;;;;;;;4.23;3.40;;;11.70;97.30;;;;;;4988469;28;20184;-82
2023/04/29 01:01:37;;;;;;;2.97;2.80;;;11.70;97.30;;;;;;4995822;28;20516;-80
2023/04/29 01:04:05;;;;;;;4.60;3.97;;;11.70;97.30;;;;;;5001319;28;20543;-81
2023/04/29 01:06:48;;;;;;;3.00;2.73;;;11.70;97.30;;;;;;4999336;28;20503;-83
2023/04/29 01:09:40;;;;;;;7.17;2.90;;;11.70;97.30;;;;;;4994668;28;20937;-82
2023/04/29 01:12:33;;;;;;;3.87;3.70;;;11.70;97.30;;;;;;4985769;28;20503;-84
2023/04/29 01:15:16;;;;;;;7.60;2.53;;;11.80;97.30;;;;;;4972884;28;20993;-82
2023/04/29 01:17:57;;;;;;;2.30;1.77;;;11.80;97.30;;;;;;5001090;28;20500;-85
2023/04/29 01:20:24;;;;;;;5.93;3.73;;;11.80;97.30;;;;;;4987265;28;20929;-82
2023/04/29 01:22:49;;;;;;;4.53;3.30;;;11.80;97.30;;;;;;4991793;28;20440;-85
2023/04/29 01:25:15;;;;;;;4.77;3.23;;;11.80;97.30;;;;;;4977250;28;20425;-83
2023/04/29 01:27:59;;;;;;;5.80;3.73;;;11.80;97.30;;;;;;4997219;28;20204;-82
2023/04/29 01:30:40;;;;;;;3.57;3.40;;;11.80;97.30;;;;;;5003250;28;20203;-83
2023/04/29 01:33:16;;;;;;;7.30;3.17;;;11.80;97.30;;;;;;4984678;28;20998;-86
2023/04/29 01:36:18;;;;;;;7.07;3.77;;;11.80;97.30;;;;;;5000876;28;20558;-83
2023/04/29 01:38:51;;;;;;;5.77;4.03;;;11.70;97.30;;;;;;4988710;28;20449;-82
2023/04/29 01:41:27;;;;;;;2.47;1.90;;;11.70;97.30;;;;;;4992910;28;20436;-82
2023/04/29 01:43:57;;;;;;;4.03;3.23;;;11.70;97.30;;;;;;4977841;28;20516;-83
2023/04/29 01:46:23;;;;;;;3.40;3.20;;;11.70;97.30;;;;;;4979589;28;20422;-82
2023/04/29 01:48:52;;;;;;;2.80;2.60;;;11.70;97.30;;;;;;4976808;28;20420;-81
2023/04/29 01:51:17;;;;;;;4.20;3.07;;;11.70;97.30;;;;;;4984777;28;20240;-84
2023/04/29 01:53:43;;;;;;;4.37;3.40;;;11.70;97.30;;;;;;4983062;28;20424;-84
2023/04/29 01:56:09;;;;;;;6.73;3.97;;;11.70;97.30;;;;;;4997820;28;20252;-82
2023/04/29 01:58:34;;;;;;;5.40;3.47;;;11.70;97.30;;;;;;4981876;28;20213;-83
2023/04/29 02:01:00;;;;;;;4.70;2.60;;;11.70;97.30;;;;;;5000314;28;20719;-82
2023/04/29 02:03:25;;;;;;;6.63;4.30;;;11.70;97.30;;;;;;5004895;28;20260;-86
2023/04/29 02:05:51;;;;;;;5.60;2.80;;;11.80;97.30;;;;;;5010444;28;20180;-82
2023/04/29 02:08:17;;;;;;;3.93;3.13;;;11.80;97.30;;;;;;4985597;28;20675;-82
2023/04/29 02:10:54;;;;;;;6.93;4.60;;;11.80;97.30;;;;;;4983277;28;20326;-82
2023/04/29 02:13:19;;;;;;;4.27;3.50;;;11.80;97.30;;;;;;4998189;28;20524;-82
2023/04/29 02:15:45;;;;;;;4.50;3.33;;;11.80;97.30;;;;;;5010173;28;20498;-81
2023/04/29 02:18:10;;;;;;;6.43;3.93;;;11.80;97.30;;;;;;4982431;28;20187;-79
2023/04/29 02:20:36;;;;;;;9.37;3.63;;;11.80;97.30;;;;;;5007804;28;20177;-82
2023/04/29 02:23:01;;;;;;;11.40;3.40;;;11.80;97.30;;;;;;4983593;28;20201;-81
2023/04/29 02:25:27;;;;;;;4.90;2.83;;;11.80;97.30;;;;;;4995385;28;20190;-81
2023/04/29 02:27:52;;;;;;;3.67;3.30;;;11.80;97.30;;;;;;4998921;28;20279;-81
2023/04/29 02:30:18;;;;;;;4.87;4.33;;;11.80;97.30;;;;;;4997491;28;20253;-77
2023/04/29 02:32:43;;;;;;;4.53;3.90;;;11.80;97.30;;;;;;5000894;28;20207;-79
2023/04/29 02:35:09;;;;;;;7.00;4.53;;;11.80;97.30;;;;;;4996963;28;20691;-79
2023/04/29 02:37:34;;;;;;;3.53;2.17;;;11.80;97.30;;;;;;4995360;28;20177;-77
2023/04/29 02:40:01;;;;;;;13.50;5.47;;;11.80;97.30;;;;;;5003645;28;20615;-77
2023/04/29 02:42:26;;;;;;;4.00;2.90;;;11.80;97.30;;;;;;4973269;28;20230;-80
2023/04/29 02:44:51;;;;;;;4.50;4.00;;;11.80;97.30;;;;;;4995557;28;20460;-77
2023/04/29 02:47:17;;;;;;;7.93;3.63;;;11.90;97.30;;;;;;4996665;28;20276;-79
2023/04/29 02:49:42;;;;;;;6.60;3.33;;;11.80;97.30;;;;;;5000333;28;20577;-80
2023/04/29 02:52:08;;;;;;;7.57;4.33;;;11.80;97.30;;;;;;4994913;28;20232;-79
2023/04/29 02:54:33;;;;;;;6.67;4.40;;;11.80;97.30;;;;;;5005097;28;20676;-80
2023/04/29 02:56:59;;;;;;;7.30;4.43;;;11.80;97.30;;;;;;4979449;28;20182;-77
2023/04/29 02:59:25;;;;;;;7.00;4.33;;;11.80;97.30;;;;;;4977029;28;20200;-76
2023/04/29 03:01:53;;;;;;;7.03;3.47;;;11.80;97.30;;;;;;4995924;28;20256;-79
2023/04/29 03:04:19;;;;;;;4.17;2.73;;;11.80;97.30;;;;;;4973218;28;20428;-76
2023/04/29 03:06:45;;;;;;;11.33;6.10;;;11.80;97.30;;;;;;5012429;28;20427;-78
2023/04/29 03:09:12;;;;;;;4.13;3.90;;;11.80;97.30;;;;;;4996736;28;20276;-77
2023/04/29 03:11:37;;;;;;;5.27;3.60;;;11.80;97.30;;;;;;5000290;28;20209;-77
2023/04/29 03:14:03;;;;;;;7.37;4.60;;;11.80;97.30;;;;;;4997071;28;20424;-77
2023/04/29 03:16:30;;;;;;;12.50;4.60;;;11.80;97.30;;;;;;4986149;28;20212;-77
2023/04/29 03:18:55;;;;;;;8.07;6.67;;;11.80;97.30;;;;;;4983295;28;20696;-77
2023/04/29 03:21:21;;;;;;;7.27;3.77;;;11.80;97.30;;;;;;4984419;28;20455;-77
2023/04/29 03:23:46;;;;;;;3.57;3.40;;;11.80;97.30;;;;;;4971744;28;20214;-79
2023/04/29 03:26:12;;;;;;;12.20;6.03;;;11.80;97.30;;;;;;4980776;28;20280;-77
2023/04/29 03:28:37;;;;;;;2.73;2.60;;;11.80;97.30;;;;;;5003864;28;20189;-77
2023/04/29 03:31:03;;;;;;;9.10;4.90;;;11.80;97.30;;;;;;4999672;28;20576;-77
2023/04/29 03:33:28;;;;;;;8.13;4.50;;;11.80;97.30;;;;;;4982811;28;20185;-77
2023/04/29 03:35:54;;;;;;;9.83;3.40;;;11.80;97.30;;;;;;4994262;28;20695;-80
2023/04/29 03:38:20;;;;;;;10.67;3.87;;;11.80;97.30;;;;;;4997096;28;20220;-77
2023/04/29 03:40:45;;;;;;;6.67;5.27;;;11.80;97.30;;;;;;4993778;28;20305;-77
2023/04/29 03:43:12;;;;;;;6.57;6.17;;;11.70;97.30;;;;;;4972811;28;20709;-77
2023/04/29 03:45:38;;;;;;;6.93;5.13;;;11.70;97.30;;;;;;5001475;28;20181;-77
2023/04/29 03:48:04;;;;;;;8.20;6.10;;;11.70;97.30;;;;;;5002445;28;20445;-77
2023/04/29 03:50:29;;;;;;;10.20;5.33;;;11.70;97.30;;;;;;4979403;28;20182;-76
2023/04/29 03:52:56;;;;;;;6.50;4.73;;;11.70;97.30;;;;;;5002102;28;20486;-78
2023/04/29 03:55:22;;;;;;;11.63;6.50;;;11.70;97.30;;;;;;5000063;28;20323;-78
2023/04/29 03:57:47;;;;;;;4.07;2.43;;;11.70;97.30;;;;;;4980853;28;20421;-79
2023/04/29 04:00:13;;;;;;;3.70;3.20;;;11.70;97.30;;;;;;4988767;28;20179;-77
2023/04/29 04:02:39;;;;;;;11.13;6.77;;;11.70;97.30;;;;;;5004742;28;20197;-78
2023/04/29 04:05:05;;;;;;;16.83;5.40;;;11.70;97.30;;;;;;4993173;28;20909;-79
2023/04/29 04:07:30;;;;;;;5.27;3.50;;;11.80;97.30;;;;;;4983374;28;20247;-80
2023/04/29 04:09:56;;;;;;;4.83;4.17;;;11.80;97.30;;;;;;4998526;28;20181;-79
2023/04/29 04:12:21;;;;;;;12.33;6.63;;;11.80;97.30;;;;;;4973170;28;20222;-79
2023/04/29 04:14:47;;;;;;;6.90;3.07;;;11.80;97.30;;;;;;4994329;28;20189;-80
2023/04/29 04:17:12;;;;;;;6.70;4.33;;;11.80;97.30;;;;;;4983012;28;20177;-78
2023/04/29 04:19:38;;;;;;;7.97;5.30;;;11.80;97.30;;;;;;4996588;28;20173;-79
2023/04/29 04:22:03;;;;;;;10.27;5.33;;;11.80;97.30;;;;;;4976392;28;20198;-81
2023/04/29 04:24:29;;;;;;;9.67;6.93;;;11.80;97.30;;;;;;4979681;28;20186;-78
2023/04/29 04:26:54;;;;;;;16.53;5.50;;;11.80;97.30;;;;;;4999426;28;20184;-81
2023/04/29 04:29:20;;;;;;;8.53;6.33;;;11.80;97.30;;;;;;4985915;28;20539;-78
2023/04/29 04:31:46;;;;;;;13.40;5.97;;;11.90;97.30;;;;;;5002328;28;20197;-77
2023/04/29 04:34:11;;;;;;;10.53;5.93;;;11.90;97.30;;;;;;4978699;28;20212;-79
2023/04/29 04:36:37;;;;;;;6.60;4.70;;;11.90;97.30;;;;;;4993575;28;20473;-80
2023/04/29 04:39:02;;;;;;;7.10;4.13;;;11.90;97.30;;;;;;5001283;28;20701;-79
2023/04/29 04:41:30;;;;;;;8.20;5.17;;;12.00;97.30;;;;;;4997354;28;20205;-80
2023/04/29 04:43:56;;;;;;;7.10;4.90;;;12.00;97.30;;;;;;4998731;28;20185;-77
2023/04/29 04:46:22;;;;;;;7.83;5.53;;;12.00;97.30;;;;;;4991465;28;20448;-79
2023/04/29 04:48:47;;;;;;;6.27;3.47;;;12.00;97.30;;;;;;4996684;28;20193;-81
2023/04/29 04:51:13;;;;;;;7.60;5.27;;;12.00;97.30;;;;;;4986163;28;20300;-81
2023/04/29 04:53:40;;;;;;;8.73;6.67;;;12.10;97.30;;;;;;5001260;28;20687;-80
2023/04/29 04:56:06;;;;;;;6.90;6.07;;;12.10;97.30;;;;;;4998832;28;20205;-78
2023/04/29 04:58:32;;;;;;;13.97;8.37;;;12.10;97.30;;;;;;4981681;28;20421;-78
2023/04/29 05:00:58;;;;;;;10.10;3.70;;;12.10;97.30;;;;;;4996103;28;20412;-78
2023/04/29 05:03:24;;;;;;;15.70;8.33;;;12.20;97.30;;;;;;4985689;28;20423;-78
2023/04/29 05:05:57;;;;;;;6.00;4.07;;;12.20;97.30;;;;;;4988927;28;20429;-79
2023/04/29 05:08:23;;;;;;;10.43;8.10;;;12.20;97.30;;;;;;4969488;28;20189;-78
2023/04/29 05:10:49;;;;;;;6.40;3.60;;;12.20;97.30;;;;;;4978409;28;20424;-78
2023/04/29 05:13:14;;;;;;;7.47;5.93;;;12.20;97.30;;;;;;4976167;28;20448;-76
2023/04/29 05:15:40;;;;;;;6.10;4.67;;;12.20;97.30;;;;;;4991637;28;20213;-75
2023/04/29 05:18:06;;;;;;;7.73;4.23;;;12.20;97.30;;;;;;4978977;28;20666;-77
2023/04/29 05:20:31;;;;;;;3.73;3.30;;;12.20;97.30;;;;;;4979257;28;20739;-76
2023/04/29 05:22:57;;;;;;;5.60;5.07;;;12.20;97.30;;;;;;4989905;28;20549;-75
2023/04/29 05:25:22;;;;;;;7.83;3.90;;;12.20;97.30;;;;;;4985477;28;20177;-76
2023/04/29 05:27:48;;;;;;;6.43;3.70;;;12.20;97.30;;;;;;4992890;28;20674;-76
2023/04/29 05:30:14;;;;;;;7.73;4.50;;;12.20;97.30;;;;;;4984605;28;20189;-76
2023/04/29 05:32:40;;;;;;;7.00;4.40;;;12.30;97.30;;;;;;4991200;28;20730;-76
2023/04/29 05:35:06;;;;;;;5.90;5.57;;;12.30;97.30;;;;;;4980000;28;20719;-76
2023/04/29 05:37:32;;;;;;;5.33;3.90;;;12.30;97.30;;;;;;4973987;28;20758;-76
2023/04/29 05:39:57;;;;;;;5.87;4.90;;;12.30;97.30;;;;;;4971877;28;20213;-75
2023/04/29 05:42:23;;;;;;;3.60;3.43;;;12.30;97.30;;;;;;4987923;28;21030;-78
2023/04/29 05:44:50;;;;;;;6.20;3.30;;;12.30;97.30;;;;;;4983903;28;20174;-78
2023/04/29 05:47:15;;;;;;;2.80;2.33;;;12.30;97.30;;;;;;4994560;28;20223;-78
2023/04/29 05:49:41;;;;;;;4.07;3.77;;;12.30;97.30;;;;;;4998256;28;20948;-76
2023/04/29 05:52:06;;;;;;;3.50;2.10;;;12.30;97.30;;;;;;4985802;28;20389;-73
2023/04/29 05:54:34;;;;;;;6.57;3.70;;;12.30;97.30;;;;;;4984006;28;20555;-76
2023/04/29 05:57:04;;;;;;;4.67;3.57;;;12.30;97.30;;;;;;4989076;28;20288;-76
2023/04/29 05:59:31;;;;;;;4.17;2.80;;;12.40;97.30;;;;;;4974739;28;20433;-76
2023/04/29 06:01:57;;;;;;;8.03;5.27;;;12.40;97.30;;;;;;4998488;28;20443;-78
2023/04/29 06:04:24;;;;;;;5.70;5.30;;;12.40;97.30;;;;;;4966758;28;20925;-75
2023/04/29 06:06:50;;;;;;;14.53;5.17;;;12.40;97.30;;;;;;4987266;28;20426;-77
2023/04/29 06:09:16;;;;;;;4.33;3.57;;;12.50;97.30;;;;;;4971220;28;20488;-76
2023/04/29 06:11:43;;;;;;;6.77;4.73;;;12.50;97.30;;;;;;4980856;28;21511;-77
2023/04/29 06:14:08;;;;;;;6.60;3.70;;;12.50;97.30;;;;;;4973047;28;20396;-74
2023/04/29 06:16:34;;;;;;;3.03;2.87;;;12.50;97.30;;;;;;4968399;28;20473;-75
2023/04/29 06:19:00;;;;;;;2.90;2.70;;;12.60;97.30;;;;;;4972948;28;20562;-78
2023/04/29 06:21:27;;;;;;;8.10;2.87;;;12.60;97.30;;;;;;4994066;28;20201;-76
2023/04/29 06:23:53;;;;;;;5.47;5.17;;;12.70;97.30;;;;;;4993381;28;20431;-77
2023/04/29 06:26:19;;;;;;;4.73;3.20;;;12.70;97.30;;;;;;4979545;28;20429;-78
2023/04/29 06:28:45;;;;;;;4.40;3.07;;;12.70;97.30;;;;;;4974470;28;20418;-78
2023/04/29 06:31:11;;;;;;;16.20;5.17;;;12.80;97.30;;;;;;4987305;28;20808;-78
2023/04/29 06:33:37;;;;;;;5.00;2.70;;;12.80;97.30;;;;;;4989922;28;20417;-79
2023/04/29 06:36:03;;;;;;;4.73;4.53;;;12.90;97.30;;;;;;4989860;28;20194;-77
2023/04/29 06:38:29;;;;;;;7.73;4.97;;;12.80;97.30;;;;;;4988117;28;20178;-80
2023/04/29 06:40:54;;;;;;;10.47;4.47;;;12.80;97.30;;;;;;4984736;28;20476;-81
2023/04/29 06:43:20;;;;;;;3.97;3.77;;;12.80;97.30;;;;;;4985758;28;20360;-82
2023/04/29 06:45:46;;;;;;;5.10;4.77;;;12.80;97.30;;;;;;4975039;28;20762;-81
2023/04/29 06:48:11;;;;;;;6.03;4.20;;;12.80;97.30;;;;;;4976307;28;20556;-79
2023/04/29 06:50:37;;;;;;;13.43;5.40;;;12.80;97.30;;;;;;4981859;28;20416;-80
2023/04/29 06:53:02;;;;;;;6.07;2.93;;;12.80;97.30;;;;;;4972608;28;20698;-78
2023/04/29 06:55:28;;;;;;;2.73;2.53;;;12.80;97.30;;;;;;4975882;28;20272;-80
2023/04/29 06:57:53;;;;;;;6.20;3.30;;;12.80;97.30;;;;;;4973165;28;20705;-82
2023/04/29 07:03:22;;;;;;;9.90;4.83;;;12.80;97.30;;;;;;4944976;28;20220;-80
2023/04/29 07:05:57;;;;;;;2.57;2.07;;;12.80;97.30;;;;;;4976919;28;20572;-78
2023/04/29 07:08:22;;;;;;;4.93;1.70;;;12.90;97.30;;;;;;4978031;28;20470;-80
2023/04/29 07:10:55;;;;;;;5.97;3.80;;;13.00;97.30;;;;;;4974349;28;20473;-80
2023/04/29 07:13:21;;;;;;;3.60;3.40;;;13.00;97.30;;;;;;4971308;28;20217;-76
2023/04/29 07:15:47;;;;;;;2.70;2.50;;;13.10;97.30;;;;;;4988498;28;20556;-80
2023/04/29 07:18:12;;;;;;;6.60;2.23;;;13.10;97.30;;;;;;4973867;28;20428;-78
2023/04/29 07:20:38;;;;;;;4.60;2.63;;;13.10;97.30;;;;;;4981553;28;20170;-79
2023/04/29 07:23:04;;;;;;;6.70;2.27;;;13.10;97.30;;;;;;4973680;28;20208;-78
2023/04/29 07:25:29;;;;;;;10.33;2.40;;;13.10;97.30;;;;;;4977414;28;20185;-78
2023/04/29 07:27:56;;;;;;;7.30;4.17;;;13.20;97.30;;;;;;4974142;28;20186;-80
2023/04/29 07:30:22;;;;;;;3.10;2.90;;;13.20;97.30;;;;;;4973684;28;20689;-79
2023/04/29 07:32:48;;;;;;;4.87;3.33;;;13.30;97.30;;;;;;4989836;28;20534;-80
2023/04/29 07:35:13;;;;;;;3.53;3.33;;;13.30;97.30;;;;;;4972599;28;21748;-79
2023/04/29 07:37:40;;;;;;;6.00;3.00;;;13.30;97.30;;;;;;4989849;28;20180;-80
2023/04/29 07:40:06;;;;;;;5.73;4.27;;;13.30;97.30;;;;;;4972149;28;20300;-80
2023/04/29 07:42:31;;;;;;;4.90;3.43;;;13.30;97.30;;;;;;4974602;28;20448;-79
2023/04/29 07:44:57;;;;;;;2.23;1.90;;;13.30;97.30;;;;;;4965204;28;20444;-77
2023/04/29 07:47:23;;;;;;;2.50;2.30;;;13.30;97.30;;;;;;4997777;28;20264;-78
2023/04/29 07:49:48;;;;;;;9.90;2.20;;;13.40;97.30;;;;;;4993386;28;20269;-76
2023/04/29 07:52:13;;;;;;;5.47;2.60;;;13.50;97.30;;;;;;4973541;28;20224;-79
2023/04/29 07:54:39;;;;;;;11.10;3.87;;;13.50;97.30;;;;;;4984676;28;20181;-78
2023/04/29 07:57:05;;;;;;;5.70;3.07;;;13.50;97.30;;;;;;4995765;28;20240;-78
2023/04/29 07:59:31;;;;;;;11.83;3.90;;;13.50;97.30;;;;;;4970977;28;20256;-79
2023/04/29 08:01:57;;;;;;;5.60;3.83;;;13.50;97.30;;;;;;4990917;28;20220;-78
2023/04/29 08:04:22;;;;;;;6.30;3.67;;;13.50;97.30;;;;;;4994177;28;20738;-78
2023/04/29 08:06:48;;;;;;;4.33;2.83;;;13.50;97.30;;;;;;4995557;28;20289;-79
2023/04/29 08:09:14;;;;;;;2.37;2.17;;;13.50;97.30;;;;;;4974720;28;20799;-81
2023/04/29 08:11:40;;;;;;;9.83;4.37;;;13.40;97.30;;;;;;4976798;28;20445;-82
2023/04/29 08:14:06;;;;;;;4.90;3.50;;;13.30;97.30;;;;;;4992535;28;20421;-79
2023/04/29 08:16:31;;;;;;;3.07;2.87;;;13.20;97.30;;;;;;4991488;28;20459;-78
2023/04/29 08:18:57;;;;;;;17.63;5.57;;;13.10;97.30;;;;;;4973072;28;20178;-80
2023/04/29 08:21:23;;;;;;;7.27;4.87;;;13.00;97.30;;;;;;4971224;28;20201;-82
2023/04/29 08:23:48;;;;;;;7.53;5.57;;;12.90;97.30;;;;;;4980756;28;20316;-81
2023/04/29 08:26:14;;;;;;;10.43;3.97;;;12.80;97.30;;;;;;4973738;28;20182;-81
2023/04/29 08:28:39;;;;;;;14.90;5.20;;;12.70;97.30;;;;;;4995284;28;20182;-78
2023/04/29 08:31:06;;;;;;;5.93;4.67;;;12.70;97.30;;;;;;4992012;28;20464;-79
2023/04/29 08:33:38;;;;;;;6.60;5.27;;;12.70;97.30;;;;;;4982001;28;20202;-78
2023/04/29 08:36:04;;;;;;;4.83;3.50;;;12.80;97.30;;;;;;4971182;28;20469;-78
2023/04/29 08:38:29;;;;;;;6.23;3.13;;;12.90;97.30;;;;;;4978928;28;20922;-79
2023/04/29 08:40:55;;;;;;;8.73;4.23;;;13.10;97.30;;;;;;5003374;28;20445;-79
2023/04/29 08:43:21;;;;;;;12.90;3.60;;;13.20;97.30;;;;;;4973304;28;20203;-79
2023/04/29 08:45:50;;;;;;;8.47;4.90;;;13.20;97.30;;;;;;4984390;28;20189;-81
2023/04/29 08:48:17;;;;;;;4.80;3.60;;;13.10;97.30;;;;;;4973049;28;20185;-81
2023/04/29 08:50:43;;;;;;;6.27;2.97;;;13.10;97.30;;;;;;4995188;28;21182;-78
2023/04/29 08:53:10;;;;;;;7.00;3.67;;;13.10;97.30;;;;;;4988484;28;20533;-79
2023/04/29 08:55:40;;;;;;;9.77;4.30;;;13.10;97.30;;;;;;4983988;28;21068;-79
2023/04/29 08:58:06;;;;;;;6.67;3.37;;;13.10;97.30;;;;;;4976541;28;20500;-79
2023/04/29 09:00:34;;;;;;;6.43;4.93;;;13.10;97.30;;;;;;4978372;28;20901;-80
2023/04/29 09:03:20;;;;;;;2.97;1.83;;;13.10;97.30;;;;;;4985749;28;20869;-81
2023/04/29 09:05:51;;;;;;;6.23;3.57;;;13.20;97.30;;;;;;4988835;28;20412;-80
2023/04/29 09:08:17;;;;;;;3.50;3.33;;;13.30;97.30;;;;;;4978955;28;20508;-79
2023/04/29 09:10:42;;;;;;;8.60;5.63;;;13.40;97.30;;;;;;4974212;28;20508;-78
2023/04/29 09:13:08;;;;;;;6.07;3.30;;;13.40;97.30;;;;;;4976047;28;20693;-78
2023/04/29 09:15:39;;;;;;;4.83;2.90;;;13.40;97.30;;;;;;4985165;28;20700;-78
2023/04/29 09:18:07;;;;;;;6.50;4.10;;;13.40;97.30;;;;;;4994765;28;20266;-77
2023/04/29 09:20:36;;;;;;;3.60;3.40;;;13.40;97.30;;;;;;4982801;28;20427;-78
2023/04/29 09:23:08;;;;;;;19.97;4.47;;;13.50;97.30;;;;;;4985597;28;20443;-78
2023/04/29 09:25:36;;;;;;;10.30;3.93;;;13.50;97.30;;;;;;4981491;28;20970;-78
2023/04/29 09:28:18;;;;;;;3.00;2.33;;;13.40;97.30;;;;;;4992405;28;20440;-78
2023/04/29 09:30:46;;;;;;;5.40;2.27;;;13.20;97.30;;;;;;4989981;28;20425;-78
2023/04/29 09:33:16;;;;;;;7.23;4.27;;;13.20;97.30;;;;;;4997404;28;20420;-80
2023/04/29 09:35:47;;;;;;;5.07;3.90;;;13.20;97.30;;;;;;4980129;28;20470;-78
2023/04/29 09:38:15;;;;;;;4.40;2.93;;;13.30;97.30;;;;;;4980671;28;20440;-78
2023/04/29 09:40:42;;;;;;;5.73;3.23;;;13.40;97.30;;;;;;4990172;28;20424;-80
2023/04/29 09:43:13;;;;;;;4.40;3.80;;;13.50;97.30;;;;;;4970407;28;20434;-83
2023/04/29 09:45:46;;;;;;;9.70;3.37;;;13.50;97.30;;;;;;4970170;28;20428;-78
2023/04/29 09:48:13;;;;;;;5.23;3.30;;;13.40;97.30;;;;;;4970526;28;20468;-81
2023/04/29 09:50:48;;;;;;;3.53;2.90;;;13.30;97.30;;;;;;5004684;28;20791;-81
2023/04/29 09:53:28;;;;;;;6.83;3.13;;;13.10;97.30;;;;;;4981205;28;20478;-78
2023/04/29 09:56:01;;;;;;;5.13;3.50;;;12.90;97.30;;;;;;4965789;28;20447;-78
2023/04/29 09:58:37;;;;;;;4.70;2.73;;;12.70;97.30;;;;;;4975781;28;20417;-78
2023/04/29 10:01:16;;;;;;;3.50;3.30;;;12.60;97.30;;;;;;4989838;28;20428;-78
2023/04/29 10:03:44;;;;;;;3.73;3.23;;;12.60;97.30;;;;;;4967023;28;20413;-79
2023/04/29 10:06:10;;;;;;;2.40;2.10;;;12.60;97.30;;;;;;4993025;28;20448;-77
2023/04/29 10:08:36;;;;;;;2.47;1.77;;;12.60;97.30;;;;;;4981073;28;20452;-79
2023/04/29 10:11:05;;;;;;;2.97;2.10;;;12.60;97.30;;;;;;4975209;28;20425;-81
2023/04/29 10:13:37;;;;;;;3.53;1.83;;;12.50;97.30;;;;;;4972258;28;20429;-78
2023/04/29 10:16:08;;;;;;;5.40;3.03;;;12.40;97.30;;;;;;4972933;28;20572;-81
2023/04/29 10:18:55;;;;;;;4.00;3.73;;;12.30;97.30;;;;;;4993677;28;20413;-80
2023/04/29 10:21:35;;;;;;;3.27;2.27;;;12.20;97.30;;;;;;4988821;28;20453;-82
2023/04/29 10:24:17;;;;;;;3.53;2.87;;;12.20;97.30;;;;;;4965653;28;20414;-82
2023/04/29 10:26:46;;;;;;;3.47;2.90;;;12.20;97.30;;;;;;4974877;28;20427;-83
2023/04/29 10:29:15;;;;;;;6.30;3.30;;;12.40;97.30;;;;;;4983895;28;20417;-83
2023/04/29 10:31:43;;;;;;;3.80;1.90;;;12.60;97.30;;;;;;4986993;28;21143;-80
2023/04/29 10:34:10;;;;;;;2.83;2.10;;;12.60;97.30;;;;;;4984101;28;20420;-81
2023/04/29 10:36:36;;;;;;;3.27;2.00;;;12.50;97.30;;;;;;4977188;28;21071;-80
2023/04/29 10:39:04;;;;;;;1.83;1.73;;;12.30;97.30;;;;;;4978563;28;20504;-83
2023/04/29 10:41:45;;;;;;;8.63;3.37;;;12.20;97.30;;;;;;5003681;28;20437;-79
2023/04/29 10:44:10;;;;;;;3.93;3.73;;;12.00;97.30;;;;;;4973121;28;20404;-83
2023/04/29 10:46:36;;;;;;;2.20;1.67;;;11.90;97.30;;;;;;4973967;28;20426;-79
2023/04/29 10:49:06;;;;;;;5.37;3.93;;;11.80;97.30;;;;;;4994000;28;20232;-79
2023/04/29 10:51:34;;;;;;;4.30;2.60;;;11.70;97.30;;;;;;4996091;28;20490;-78
2023/04/29 10:54:09;;;;;;;6.27;3.37;;;11.70;97.30;;;;;;4980123;28;20420;-84
2023/04/29 10:56:52;;;;;;;8.23;3.63;;;11.60;97.30;;;;;;4969290;28;20495;-78
2023/04/29 10:59:41;;;;;;;6.47;4.37;;;11.50;97.30;;;;;;4983601;28;20420;-82
2023/04/29 11:02:08;;;;;;;3.83;3.63;;;11.40;97.30;;;;;;4973843;28;20535;-83
2023/04/29 11:04:34;;;;;;;13.00;5.17;;;11.40;97.30;;;;;;4987106;28;20913;-82
2023/04/29 11:07:06;;;;;;;5.77;3.30;;;11.50;97.30;;;;;;4977856;28;20424;-82
2023/04/29 11:09:37;;;;;;;4.17;3.93;;;11.50;97.30;;;;;;4985180;28;20200;-81
2023/04/29 11:12:04;;;;;;;7.93;3.63;;;11.50;97.30;;;;;;4994383;28;20502;-78
2023/04/29 11:14:35;;;;;;;3.57;3.37;;;11.50;97.30;;;;;;4996908;28;20512;-80
2023/04/29 11:17:11;;;;;;;8.60;4.20;;;11.50;97.30;;;;;;4992355;28;20816;-79
2023/04/29 11:19:41;;;;;;;5.63;5.20;;;11.50;97.30;;;;;;4989680;28;20420;-78
2023/04/29 11:22:21;;;;;;;7.60;5.50;;;11.50;97.30;;;;;;4991959;28;20437;-83
2023/04/29 11:24:49;;;;;;;4.20;3.80;;;11.50;97.30;;;;;;4987530;28;20409;-83
2023/04/29 11:27:16;;;;;;;6.87;4.80;;;11.50;97.30;;;;;;4983078;28;20460;-83
2023/04/29 11:29:43;;;;;;;8.27;5.23;;;11.50;97.30;;;;;;4995572;28;20421;-83
2023/04/29 11:32:09;;;;;;;5.53;5.23;;;11.40;97.30;;;;;;4978130;28;20487;-83
2023/04/29 11:34:34;;;;;;;10.13;6.57;;;11.40;97.30;;;;;;4973582;28;20460;-78
2023/04/29 11:37:03;;;;;;;13.97;8.17;;;11.40;97.30;;;;;;4990644;28;20198;-81
2023/04/29 11:39:29;;;;;;;5.50;3.07;;;11.40;97.30;;;;;;4978874;28;20560;-80
2023/04/29 11:42:07;;;;;;;17.40;8.00;;;11.40;97.30;;;;;;4992675;28;20443;-77
2023/04/29 11:44:34;;;;;;;14.07;6.23;;;11.40;97.30;;;;;;4992287;28;20678;-82
2023/04/29 11:47:06;;;;;;;12.83;6.30;;;11.40;97.30;;;;;;4983728;28;20499;-82
2023/04/29 11:49:36;;;;;;;15.03;7.17;;;11.40;97.30;;;;;;4979587;28;20940;-80
2023/04/29 11:52:01;;;;;;;8.73;5.20;;;11.40;97.30;;;;;;4975415;28;20472;-79
2023/04/29 11:54:29;;;;;;;7.67;4.77;;;11.40;97.30;;;;;;4975718;28;20426;-79
2023/04/29 11:56:55;;;;;;;5.80;3.37;;;11.40;97.30;;;;;;4991604;28;20213;-83
2023/04/29 11:59:21;;;;;;;7.20;4.47;;;11.40;97.30;;;;;;4994212;28;20428;-79
2023/04/29 12:01:48;;;;;;;5.60;5.30;;;11.40;97.30;;;;;;4978930;28;20439;-82
2023/04/29 12:04:14;;;;;;;11.00;6.83;;;11.40;97.30;;;;;;4989999;28;20421;-80
2023/04/29 12:06:40;;;;;;;12.47;7.03;;;11.50;97.30;;;;;;4996708;28;21041;-81
2023/04/29 12:09:06;;;;;;;8.30;5.07;;;11.50;97.30;;;;;;4982121;28;20553;-80
2023/04/29 12:11:31;;;;;;;6.50;5.53;;;11.50;97.30;;;;;;4991435;28;20515;-78
2023/04/29 12:13:59;;;;;;;11.00;4.30;;;11.50;97.30;;;;;;4985706;28;20729;-79
2023/04/29 12:16:28;;;;;;;6.50;6.17;;;11.50;97.30;;;;;;4977585;28;20256;-79
2023/04/29 12:18:54;;;;;;;7.20;4.60;;;11.60;97.30;;;;;;4979559;28;20425;-79
2023/04/29 12:21:21;;;;;;;8.40;4.60;;;11.80;97.30;;;;;;4986169;28;20444;-78
2023/04/29 12:23:47;;;;;;;6.57;5.50;;;11.90;97.30;;;;;;4977694;28;20413;-82
2023/04/29 12:26:13;;;;;;;5.63;4.27;;;12.10;97.30;;;;;;4978702;28;20479;-82
2023/04/29 12:28:40;;;;;;;4.57;3.53;;;12.20;97.30;;;;;;4994115;28;20174;-79
2023/04/29 12:31:10;;;;;;;12.53;4.20;;;12.30;97.30;;;;;;4978524;28;20425;-80
2023/04/29 12:33:35;;;;;;;14.50;6.23;;;12.30;97.30;;;;;;4975094;28;20936;-80
2023/04/29 12:36:01;;;;;;;6.07;3.73;;;12.40;97.30;;;;;;4989186;28;20559;-79
2023/04/29 12:38:29;;;;;;;3.63;3.43;;;12.40;97.30;;;;;;4981448;28;20185;-81
2023/04/29 12:40:57;;;;;;;6.00;5.10;;;12.50;97.30;;;;;;4985832;28;20930;-79
2023/04/29 12:43:29;;;;;;;4.90;4.60;;;12.50;97.30;;;;;;4976299;28;20441;-83
2023/04/29 12:46:03;;;;;;;7.10;4.73;;;12.60;97.30;;;;;;4988088;28;20421;-82
2023/04/29 12:48:33;;;;;;;10.40;4.50;;;12.50;97.30;;;;;;4990535;28;20846;-79
2023/04/29 12:51:00;;;;;;;4.73;2.83;;;12.60;97.30;;;;;;4982405;28;20467;-80